createdAt,value
2017-02-02T00:00:07.658Z,5.41
2017-02-02T00:01:08.032Z,5.34
2017-02-02T00:02:08.459Z,5.39
2017-02-02T00:03:08.380Z,5.44
2017-02-02T00:04:07.949Z,5.32
2017-02-02T00:05:07.929Z,5.38
2017-02-02T00:06:07.908Z,5.29
2017-02-02T00:07:08.278Z,5.31
2017-02-02T00:08:07.856Z,5.29
2017-02-02T00:09:07.418Z,5.21
2017-02-02T00:10:07.801Z,5.21
2017-02-02T00:11:07.762Z,5.26
2017-02-02T00:12:08.256Z,5.31
2017-02-02T00:13:08.123Z,5.31
2017-02-02T00:14:07.306Z,5.34
2017-02-02T00:15:08.078Z,5.46
2017-02-02T00:16:08.045Z,5.47
2017-02-02T00:17:07.619Z,5.46
2017-02-02T00:18:07.602Z,5.38
2017-02-02T00:19:07.981Z,5.42
2017-02-02T00:20:07.553Z,5.56
2017-02-02T00:21:07.517Z,5.57
2017-02-02T00:22:07.098Z,5.5
2017-02-02T00:23:07.471Z,5.56
2017-02-02T00:24:07.846Z,5.63
2017-02-02T00:25:07.417Z,5.5
2017-02-02T00:26:07.400Z,5.6
2017-02-02T00:27:06.974Z,5.57
2017-02-02T00:28:06.949Z,5.7
2017-02-02T00:29:07.330Z,5.68
2017-02-02T00:30:07.714Z,5.65
2017-02-02T00:31:07.280Z,5.65
2017-02-02T00:32:07.652Z,5.75
2017-02-02T00:33:07.223Z,5.83
2017-02-02T00:34:07.259Z,5.93
2017-02-02T00:35:07.583Z,5.83
2017-02-02T00:36:07.563Z,5.7
2017-02-02T00:37:07.133Z,5.73
2017-02-02T00:38:07.112Z,5.62
2017-02-02T00:39:07.069Z,5.59
2017-02-02T00:40:06.651Z,5.57
2017-02-02T00:41:07.444Z,5.46
2017-02-02T00:42:07.000Z,5.34
2017-02-02T00:43:06.576Z,5.49
2017-02-02T00:44:06.952Z,5.42
2017-02-02T00:45:06.984Z,5.42
2017-02-02T00:46:06.914Z,5.29
2017-02-02T00:47:07.309Z,5.37
2017-02-02T00:48:06.865Z,5.44
2017-02-02T00:49:07.246Z,5.32
2017-02-02T00:50:06.807Z,5.44
2017-02-02T00:51:06.396Z,5.39
2017-02-02T00:52:07.161Z,5.29
2017-02-02T00:53:06.746Z,5.34
2017-02-02T00:54:06.702Z,5.41
2017-02-02T00:55:06.693Z,5.44
2017-02-02T00:56:06.673Z,5.49
2017-02-02T00:57:06.224Z,5.56
2017-02-02T00:58:06.619Z,5.57
2017-02-02T00:59:06.994Z,5.57
2017-02-02T01:00:06.574Z,5.7
2017-02-02T01:01:06.942Z,5.59
2017-02-02T01:02:06.509Z,5.49
2017-02-02T01:03:06.897Z,5.5
2017-02-02T01:04:06.461Z,5.47
2017-02-02T01:05:06.440Z,5.44
2017-02-02T01:06:06.816Z,5.47
2017-02-02T01:07:06.800Z,5.32
2017-02-02T01:08:06.466Z,5.32
2017-02-02T01:09:06.347Z,5.38
2017-02-02T01:10:06.348Z,5.41
2017-02-02T01:11:06.694Z,5.49
2017-02-02T01:12:06.724Z,5.42
2017-02-02T01:13:06.645Z,5.46
2017-02-02T01:14:06.215Z,5.44
2017-02-02T01:15:06.198Z,5.5
2017-02-02T01:16:06.581Z,5.59
2017-02-02T01:17:06.548Z,5.46
2017-02-02T01:18:06.522Z,5.52
2017-02-02T01:19:06.504Z,5.46
2017-02-02T01:20:06.485Z,5.44
2017-02-02T01:21:06.453Z,5.44
2017-02-02T01:22:06.023Z,5.41
2017-02-02T01:23:06.427Z,5.42
2017-02-02T01:24:06.370Z,5.38
2017-02-02T01:25:05.550Z,5.44
2017-02-02T01:26:05.517Z,5.47
2017-02-02T01:27:05.898Z,5.46
2017-02-02T01:28:05.862Z,5.39
2017-02-02T01:29:06.253Z,5.44
2017-02-02T01:30:06.238Z,5.44
2017-02-02T01:31:06.197Z,5.37
2017-02-02T01:32:06.186Z,5.41
2017-02-02T01:33:06.167Z,5.55
2017-02-02T01:34:06.135Z,5.42
2017-02-02T01:35:06.159Z,5.32
2017-02-02T01:36:06.084Z,5.44
2017-02-02T01:37:05.644Z,5.42
2017-02-02T01:38:06.033Z,5.49
2017-02-02T01:39:06.024Z,5.39
2017-02-02T01:40:05.566Z,5.42
2017-02-02T01:41:05.555Z,5.42
2017-02-02T01:42:05.930Z,5.44
2017-02-02T01:43:05.922Z,5.44
2017-02-02T01:44:05.489Z,5.46
2017-02-02T01:45:05.479Z,5.55
2017-02-02T01:46:05.839Z,5.49
2017-02-02T01:47:05.414Z,5.47
2017-02-02T01:48:05.802Z,5.53
2017-02-02T01:49:05.765Z,5.38
2017-02-02T01:50:05.336Z,5.39
2017-02-02T01:51:05.716Z,5.37
2017-02-02T01:52:05.697Z,5.38
2017-02-02T01:53:05.255Z,5.34
2017-02-02T01:54:04.835Z,5.31
2017-02-02T01:55:05.629Z,5.38
2017-02-02T01:56:05.594Z,5.34
2017-02-02T01:57:05.284Z,5.47
2017-02-02T01:58:04.735Z,5.34
2017-02-02T01:59:05.109Z,5.32
2017-02-02T02:00:05.082Z,5.47
2017-02-02T02:01:05.471Z,5.42
2017-02-02T02:02:05.441Z,5.34
2017-02-02T02:03:05.438Z,5.38
2017-02-02T02:04:05.395Z,5.31
2017-02-02T02:05:04.982Z,5.37
2017-02-02T02:06:04.938Z,5.35
2017-02-02T02:07:04.516Z,5.41
2017-02-02T02:08:04.888Z,5.41
2017-02-02T02:09:04.867Z,5.38
2017-02-02T02:10:05.234Z,5.29
2017-02-02T02:11:05.227Z,5.35
2017-02-02T02:12:05.186Z,5.44
2017-02-02T02:13:05.166Z,5.44
2017-02-02T02:14:05.145Z,5.57
2017-02-02T02:15:04.362Z,5.57
2017-02-02T02:16:05.106Z,5.53
2017-02-02T02:17:05.084Z,5.42
2017-02-02T02:18:04.774Z,5.55
2017-02-02T02:19:04.621Z,5.55
2017-02-02T02:20:04.196Z,5.57
2017-02-02T02:21:04.980Z,5.52
2017-02-02T02:22:04.549Z,5.62
2017-02-02T02:23:04.974Z,5.42
2017-02-02T02:24:04.500Z,5.49
2017-02-02T02:25:04.469Z,5.55
2017-02-02T02:26:04.457Z,5.6
2017-02-02T02:27:04.018Z,5.6
2017-02-02T02:28:04.798Z,5.52
2017-02-02T02:29:04.366Z,5.44
2017-02-02T02:30:04.392Z,5.62
2017-02-02T02:31:04.327Z,5.55
2017-02-02T02:32:04.302Z,5.6
2017-02-02T02:33:04.285Z,5.57
2017-02-02T02:34:03.865Z,5.67
2017-02-02T02:35:04.235Z,5.75
2017-02-02T02:36:04.613Z,5.78
2017-02-02T02:37:03.786Z,5.68
2017-02-02T02:38:04.565Z,5.75
2017-02-02T02:39:03.744Z,5.57
2017-02-02T02:40:03.698Z,5.57
2017-02-02T02:41:03.690Z,5.59
2017-02-02T02:42:04.070Z,5.56
2017-02-02T02:43:04.436Z,5.44
2017-02-02T02:44:03.609Z,5.5
2017-02-02T02:45:04.380Z,5.29
2017-02-02T02:46:03.964Z,5.52
2017-02-02T02:47:03.937Z,5.47
2017-02-02T02:48:03.916Z,5.62
2017-02-02T02:49:04.307Z,5.65
2017-02-02T02:50:03.878Z,5.62
2017-02-02T02:51:03.835Z,5.65
2017-02-02T02:52:03.826Z,5.62
2017-02-02T02:53:03.781Z,5.68
2017-02-02T02:54:03.765Z,5.75
2017-02-02T02:55:03.754Z,5.7
2017-02-02T02:56:03.713Z,5.81
2017-02-02T02:57:04.102Z,5.7
2017-02-02T02:58:03.681Z,5.73
2017-02-02T02:59:03.651Z,5.83
2017-02-02T03:00:03.231Z,5.77
2017-02-02T03:01:03.998Z,5.77
2017-02-02T03:02:03.169Z,5.74
2017-02-02T03:03:03.536Z,5.78
2017-02-02T03:04:03.928Z,5.92
2017-02-02T03:05:03.930Z,5.88
2017-02-02T03:06:03.477Z,5.8
2017-02-02T03:07:03.050Z,5.73
2017-02-02T03:08:03.437Z,5.74
2017-02-02T03:09:03.406Z,5.7
2017-02-02T03:10:03.383Z,5.7
2017-02-02T03:11:03.768Z,5.73
2017-02-02T03:12:03.734Z,5.77
2017-02-02T03:13:03.718Z,5.75
2017-02-02T03:14:03.688Z,5.75
2017-02-02T03:15:03.662Z,5.83
2017-02-02T03:16:03.643Z,5.83
2017-02-02T03:17:03.204Z,5.9
2017-02-02T03:18:02.856Z,5.92
2017-02-02T03:19:03.161Z,5.93
2017-02-02T03:20:03.536Z,5.93
2017-02-02T03:21:03.510Z,5.92
2017-02-02T03:22:03.495Z,5.9
2017-02-02T03:23:03.484Z,5.92
2017-02-02T03:24:03.036Z,5.9
2017-02-02T03:25:03.426Z,5.83
2017-02-02T03:26:02.660Z,5.95
2017-02-02T03:27:02.997Z,5.98
2017-02-02T03:28:02.933Z,5.89
2017-02-02T03:29:02.932Z,5.9
2017-02-02T03:30:03.300Z,5.93
2017-02-02T03:31:03.284Z,5.95
2017-02-02T03:32:02.853Z,5.93
2017-02-02T03:33:02.880Z,5.92
2017-02-02T03:34:02.792Z,5.95
2017-02-02T03:35:02.368Z,5.96
2017-02-02T03:36:02.761Z,5.96
2017-02-02T03:37:02.320Z,6
2017-02-02T03:38:03.100Z,5.98
2017-02-02T03:39:02.732Z,5.96
2017-02-02T03:40:02.664Z,5.98
2017-02-02T03:41:02.625Z,5.98
2017-02-02T03:42:03.009Z,5.99
2017-02-02T03:43:02.585Z,5.9
2017-02-02T03:44:02.567Z,5.93
2017-02-02T03:45:02.528Z,5.95
2017-02-02T03:46:02.506Z,5.93
2017-02-02T03:47:02.479Z,5.92
2017-02-02T03:48:02.865Z,6.03
2017-02-02T03:49:02.839Z,6.06
2017-02-02T03:50:02.811Z,6.07
2017-02-02T03:51:02.801Z,5.98
2017-02-02T03:52:02.773Z,6.11
2017-02-02T03:53:02.339Z,6.08
2017-02-02T03:54:01.905Z,6.11
2017-02-02T03:55:02.691Z,6.13
2017-02-02T03:56:02.667Z,6.29
2017-02-02T03:57:02.647Z,6.32
2017-02-02T03:58:02.616Z,6.1
2017-02-02T03:59:02.598Z,6.08
2017-02-02T04:00:02.580Z,6.08
2017-02-02T04:01:02.150Z,6.14
2017-02-02T04:02:01.710Z,6.13
2017-02-02T04:03:02.092Z,6
2017-02-02T04:04:01.675Z,6.04
2017-02-02T04:05:02.055Z,6.07
2017-02-02T04:06:02.027Z,5.99
2017-02-02T04:07:02.001Z,6.11
2017-02-02T04:08:02.378Z,6
2017-02-02T04:09:01.957Z,6.03
2017-02-02T04:10:02.329Z,6.04
2017-02-02T04:11:01.913Z,6.03
2017-02-02T04:12:01.889Z,6.03
2017-02-02T04:13:01.847Z,6.04
2017-02-02T04:14:01.835Z,6.07
2017-02-02T04:15:01.813Z,6.06
2017-02-02T04:16:02.186Z,6.07
2017-02-02T04:17:02.159Z,5.98
2017-02-02T04:18:02.138Z,5.96
2017-02-02T04:19:02.114Z,5.99
2017-02-02T04:20:01.690Z,5.95
2017-02-02T04:21:01.674Z,6.06
2017-02-02T04:22:01.649Z,5.96
2017-02-02T04:23:01.285Z,5.96
2017-02-02T04:24:01.593Z,5.93
2017-02-02T04:25:01.975Z,6.03
2017-02-02T04:26:01.554Z,6.07
2017-02-02T04:27:01.515Z,6.1
2017-02-02T04:28:01.499Z,6.11
2017-02-02T04:29:01.573Z,6.13
2017-02-02T04:30:01.444Z,6.21
2017-02-02T04:31:01.432Z,6.1
2017-02-02T04:32:01.007Z,6.14
2017-02-02T04:33:01.038Z,6.11
2017-02-02T04:34:01.362Z,6.11
2017-02-02T04:35:01.750Z,6.14
2017-02-02T04:36:01.299Z,6.11
2017-02-02T04:37:01.277Z,6.08
2017-02-02T04:38:01.659Z,6.07
2017-02-02T04:39:01.636Z,5.95
2017-02-02T04:40:01.216Z,5.99
2017-02-02T04:41:00.788Z,5.93
2017-02-02T04:42:01.575Z,5.92
2017-02-02T04:43:01.545Z,5.93
2017-02-02T04:44:00.708Z,5.98
2017-02-02T04:45:01.496Z,5.93
2017-02-02T04:46:01.083Z,5.9
2017-02-02T04:47:01.192Z,6
2017-02-02T04:48:01.503Z,5.93
2017-02-02T04:49:01.386Z,5.92
2017-02-02T04:50:01.065Z,5.95
2017-02-02T04:51:00.951Z,5.98
2017-02-02T04:52:00.525Z,6.07
2017-02-02T04:53:01.293Z,6.11
2017-02-02T04:54:01.269Z,6.08
2017-02-02T04:55:01.255Z,6.17
2017-02-02T04:56:01.339Z,6.1
2017-02-02T04:57:01.203Z,6.16
2017-02-02T04:58:00.795Z,6.11
2017-02-02T04:59:01.159Z,6.13
2017-02-02T05:00:00.324Z,6.1
2017-02-02T05:01:01.116Z,6.25
2017-02-02T05:02:00.675Z,6.25
2017-02-02T05:03:00.646Z,6.26
2017-02-02T05:04:00.631Z,6.33
2017-02-02T05:05:00.202Z,6.21
2017-02-02T05:06:00.579Z,6.17
2017-02-02T05:07:00.194Z,6.18
2017-02-02T05:08:00.633Z,6.03
2017-02-02T05:09:00.920Z,6.11
2017-02-02T05:10:00.520Z,6.11
2017-02-02T05:11:00.456Z,6.13
2017-02-02T05:12:00.536Z,6.03
2017-02-02T05:13:00.404Z,5.98
2017-02-02T05:14:00.400Z,6.06
2017-02-02T05:15:00.779Z,5.98
2017-02-02T05:16:00.360Z,6
2017-02-02T05:17:00.323Z,6.1
2017-02-02T05:18:00.299Z,6.06
2017-02-02T05:19:00.674Z,6.08
2017-02-02T05:20:00.681Z,6.04
2017-02-02T05:21:00.628Z,6.14
2017-02-02T05:22:00.598Z,6.16
2017-02-02T05:23:00.174Z,6.06
2017-02-02T05:24:00.164Z,6.07
2017-02-02T05:25:00.527Z,6.04
2017-02-02T05:26:00.105Z,5.98
2017-02-02T05:27:00.501Z,6.06
2017-02-02T05:28:00.113Z,6.06
2017-02-02T05:29:00.433Z,5.95
2017-02-02T05:30:00.414Z,6.03
2017-02-02T05:31:00.385Z,5.92
2017-02-02T05:32:00.370Z,5.96
2017-02-02T05:33:00.339Z,5.93
2017-02-02T05:33:59.509Z,5.74
2017-02-02T05:34:59.894Z,5.77
2017-02-02T05:35:59.857Z,5.77
2017-02-02T05:36:59.838Z,5.8
2017-02-02T05:37:59.806Z,5.95
2017-02-02T05:38:59.786Z,5.92
2017-02-02T05:39:59.765Z,5.96
2017-02-02T05:40:59.346Z,5.86
2017-02-02T05:41:59.753Z,5.73
2017-02-02T05:42:59.700Z,5.78
2017-02-02T05:44:00.133Z,5.81
2017-02-02T05:44:59.641Z,5.71
2017-02-02T05:46:00.032Z,5.74
2017-02-02T05:46:59.622Z,5.7
2017-02-02T05:47:59.571Z,5.68
2017-02-02T05:48:59.141Z,5.73
2017-02-02T05:49:59.570Z,5.77
2017-02-02T05:50:59.496Z,5.78
2017-02-02T05:51:59.883Z,5.83
2017-02-02T05:52:59.445Z,5.78
2017-02-02T05:53:59.502Z,5.83
2017-02-02T05:54:59.401Z,5.7
2017-02-02T05:55:59.830Z,5.67
2017-02-02T05:56:59.358Z,5.7
2017-02-02T05:57:59.397Z,5.71
2017-02-02T05:58:59.703Z,5.62
2017-02-02T05:59:58.908Z,5.6
2017-02-02T06:00:59.661Z,5.63
2017-02-02T06:01:59.244Z,5.67
2017-02-02T06:02:59.669Z,5.67
2017-02-02T06:03:59.190Z,5.71
2017-02-02T06:04:59.249Z,5.73
2017-02-02T06:05:59.210Z,5.63
2017-02-02T06:06:59.114Z,5.63
2017-02-02T06:07:59.640Z,5.63
2017-02-02T06:08:59.061Z,5.59
2017-02-02T06:09:59.049Z,5.6
2017-02-02T06:10:59.419Z,5.6
2017-02-02T06:11:59.410Z,5.56
2017-02-02T06:12:58.967Z,5.68
2017-02-02T06:13:59.037Z,5.63
2017-02-02T06:14:58.920Z,5.7
2017-02-02T06:15:58.895Z,5.71
2017-02-02T06:16:58.875Z,5.73
2017-02-02T06:17:58.913Z,5.71
2017-02-02T06:18:58.816Z,5.6
2017-02-02T06:19:59.203Z,5.67
2017-02-02T06:20:58.774Z,5.63
2017-02-02T06:21:58.753Z,5.63
2017-02-02T06:22:58.819Z,5.63
2017-02-02T06:23:58.702Z,5.73
2017-02-02T06:24:59.122Z,5.7
2017-02-02T06:25:58.653Z,5.73
2017-02-02T06:26:58.640Z,5.78
2017-02-02T06:27:58.603Z,5.77
2017-02-02T06:28:59.013Z,5.68
2017-02-02T06:29:59.009Z,5.71
2017-02-02T06:30:58.536Z,5.67
2017-02-02T06:31:58.918Z,5.7
2017-02-02T06:32:58.938Z,5.7
2017-02-02T06:33:58.457Z,5.67
2017-02-02T06:34:58.970Z,5.6
2017-02-02T06:35:58.873Z,5.7
2017-02-02T06:36:58.436Z,5.68
2017-02-02T06:37:58.760Z,5.63
2017-02-02T06:38:58.344Z,5.65
2017-02-02T06:39:58.320Z,5.59
2017-02-02T06:40:58.282Z,5.62
2017-02-02T06:41:58.262Z,5.71
2017-02-02T06:42:58.642Z,5.7
2017-02-02T06:43:58.685Z,5.49
2017-02-02T06:44:58.192Z,5.42
2017-02-02T06:45:57.754Z,5.37
2017-02-02T06:46:58.552Z,5.35
2017-02-02T06:47:58.529Z,5.34
2017-02-02T06:48:58.089Z,5.19
2017-02-02T06:49:58.074Z,5.17
2017-02-02T06:50:58.044Z,5.23
2017-02-02T06:51:58.431Z,5.17
2017-02-02T06:52:58.404Z,5.26
2017-02-02T06:53:58.371Z,5.24
2017-02-02T06:54:57.944Z,5.21
2017-02-02T06:55:57.924Z,5.31
2017-02-02T06:56:57.493Z,5.28
2017-02-02T06:57:57.468Z,5.24
2017-02-02T06:58:57.444Z,5.21
2017-02-02T06:59:57.421Z,5.21
2017-02-02T07:00:58.193Z,5.21
2017-02-02T07:01:57.773Z,5.2
2017-02-02T07:02:57.336Z,5.24
2017-02-02T07:03:58.121Z,5.21
2017-02-02T07:04:58.150Z,5.32
2017-02-02T07:05:57.669Z,5.39
2017-02-02T07:06:58.047Z,5.29
2017-02-02T07:07:57.620Z,5.34
2017-02-02T07:08:57.654Z,5.35
2017-02-02T07:09:57.979Z,5.34
2017-02-02T07:10:57.648Z,5.38
2017-02-02T07:11:57.528Z,5.37
2017-02-02T07:12:57.099Z,5.44
2017-02-02T07:13:57.873Z,5.41
2017-02-02T07:14:57.854Z,5.44
2017-02-02T07:15:57.425Z,5.49
2017-02-02T07:16:57.453Z,5.49
2017-02-02T07:17:57.789Z,5.46
2017-02-02T07:18:57.348Z,5.49
2017-02-02T07:19:57.720Z,5.55
2017-02-02T07:20:56.963Z,5.6
2017-02-02T07:21:57.771Z,5.59
2017-02-02T07:22:57.681Z,5.46
2017-02-02T07:23:57.756Z,5.56
2017-02-02T07:24:57.204Z,5.71
2017-02-02T07:25:57.181Z,5.67
2017-02-02T07:26:56.769Z,5.62
2017-02-02T07:27:57.123Z,5.56
2017-02-02T07:28:57.105Z,5.62
2017-02-02T07:29:56.678Z,5.59
2017-02-02T07:30:57.472Z,5.67
2017-02-02T07:31:57.036Z,5.7
2017-02-02T07:32:57.097Z,5.6
2017-02-02T07:33:57.392Z,5.59
2017-02-02T07:34:57.066Z,5.67
2017-02-02T07:35:57.044Z,5.67
2017-02-02T07:36:57.320Z,5.55
2017-02-02T07:37:56.936Z,5.56
2017-02-02T07:38:56.472Z,5.77
2017-02-02T07:39:56.427Z,5.83
2017-02-02T07:40:56.852Z,5.81
2017-02-02T07:41:56.784Z,5.8
2017-02-02T07:42:57.181Z,5.81
2017-02-02T07:43:57.146Z,5.77
2017-02-02T07:44:57.184Z,5.78
2017-02-02T07:45:56.290Z,5.78
2017-02-02T07:46:57.156Z,5.93
2017-02-02T07:47:57.043Z,5.77
2017-02-02T07:48:56.617Z,5.92
2017-02-02T07:49:57.100Z,5.95
2017-02-02T07:50:56.563Z,5.95
2017-02-02T07:51:56.147Z,5.99
2017-02-02T07:52:56.523Z,6.03
2017-02-02T07:53:56.996Z,5.95
2017-02-02T07:54:56.889Z,5.93
2017-02-02T07:55:56.860Z,5.98
2017-02-02T07:56:56.423Z,6.26
2017-02-02T07:57:56.521Z,6.37
2017-02-02T07:58:56.370Z,6.35
2017-02-02T07:59:56.826Z,6.36
2017-02-02T08:00:56.792Z,6.47
2017-02-02T08:01:56.711Z,6.72
2017-02-02T08:02:56.742Z,6.96
2017-02-02T08:03:56.656Z,7.12
2017-02-02T08:04:56.728Z,7.23
2017-02-02T08:05:56.208Z,7.31
2017-02-02T08:06:55.790Z,7.12
2017-02-02T08:07:56.157Z,6.9
2017-02-02T08:08:55.742Z,6.73
2017-02-02T08:09:56.523Z,6.55
2017-02-02T08:10:56.507Z,6.47
2017-02-02T08:11:56.486Z,6.43
2017-02-02T08:12:56.059Z,6.43
2017-02-02T08:13:56.433Z,6.25
2017-02-02T08:14:56.006Z,6.4
2017-02-02T08:15:55.985Z,6.37
2017-02-02T08:16:55.952Z,6.36
2017-02-02T08:17:55.533Z,6.4
2017-02-02T08:18:55.915Z,6.51
2017-02-02T08:19:55.484Z,6.66
2017-02-02T08:20:55.860Z,6.72
2017-02-02T08:21:56.240Z,6.83
2017-02-02T08:22:56.220Z,6.87
2017-02-02T08:23:56.199Z,6.93
2017-02-02T08:24:55.755Z,6.84
2017-02-02T08:25:55.741Z,6.91
2017-02-02T08:26:55.718Z,7.11
2017-02-02T08:27:56.107Z,7.26
2017-02-02T08:28:55.673Z,7.57
2017-02-02T08:29:55.650Z,7.76
2017-02-02T08:30:56.030Z,7.86
2017-02-02T08:31:55.192Z,7.88
2017-02-02T08:32:55.994Z,7.91
2017-02-02T08:33:55.976Z,7.7
2017-02-02T08:34:55.533Z,7.6
2017-02-02T08:35:55.519Z,7.62
2017-02-02T08:36:55.490Z,7.55
2017-02-02T08:37:55.464Z,7.56
2017-02-02T08:38:55.447Z,7.42
2017-02-02T08:39:55.421Z,7.45
2017-02-02T08:40:55.804Z,7.55
2017-02-02T08:41:55.787Z,7.57
2017-02-02T08:42:55.361Z,7.67
2017-02-02T08:43:55.332Z,7.73
2017-02-02T08:44:54.967Z,7.81
2017-02-02T08:45:54.888Z,7.67
2017-02-02T08:46:55.263Z,7.7
2017-02-02T08:47:54.847Z,7.76
2017-02-02T08:48:55.227Z,7.78
2017-02-02T08:49:54.807Z,7.97
2017-02-02T08:50:55.595Z,8.24
2017-02-02T08:51:55.614Z,8.39
2017-02-02T08:52:55.538Z,8.32
2017-02-02T08:53:55.173Z,9.03
2017-02-02T08:54:55.097Z,9.72
2017-02-02T08:55:55.481Z,10.3
2017-02-02T08:56:55.469Z,10.78
2017-02-02T08:57:55.440Z,11.33
2017-02-02T08:58:55.423Z,11.83
2017-02-02T08:59:55.410Z,11.95
2017-02-02T09:00:55.394Z,12.16
2017-02-02T09:01:54.965Z,11.54
2017-02-02T09:02:54.937Z,11.28
2017-02-02T09:03:54.971Z,11.35
2017-02-02T09:04:55.317Z,11.83
2017-02-02T09:05:54.907Z,11.46
2017-02-02T09:06:54.564Z,11.86
2017-02-02T09:07:54.946Z,12.02
2017-02-02T09:08:55.262Z,11.68
2017-02-02T09:09:54.414Z,11.56
2017-02-02T09:10:54.805Z,11.89
2017-02-02T09:11:55.186Z,11.83
2017-02-02T09:12:55.165Z,12.17
2017-02-02T09:13:54.353Z,11.84
2017-02-02T09:14:54.333Z,12.02
2017-02-02T09:15:55.133Z,12.68
2017-02-02T09:16:55.121Z,12.7
2017-02-02T09:17:54.720Z,12.45
2017-02-02T09:18:55.096Z,12.21
2017-02-02T09:19:54.268Z,12.49
2017-02-02T09:20:54.655Z,11.89
2017-02-02T09:21:54.639Z,11.9
2017-02-02T09:22:55.077Z,11.97
2017-02-02T09:23:54.669Z,12.32
2017-02-02T09:24:54.589Z,12.21
2017-02-02T09:25:54.985Z,12.31
2017-02-02T09:26:54.570Z,12.55
2017-02-02T09:27:54.657Z,12.02
2017-02-02T09:28:54.134Z,11.87
2017-02-02T09:29:54.935Z,12.2
2017-02-02T09:30:54.922Z,12.42
2017-02-02T09:31:54.914Z,12.4
2017-02-02T09:32:54.492Z,12.65
2017-02-02T09:33:54.506Z,12.68
2017-02-02T09:34:54.460Z,12.7
2017-02-02T09:35:54.455Z,13.11
2017-02-02T09:36:54.439Z,13.22
2017-02-02T09:37:54.439Z,12.85
2017-02-02T09:38:54.864Z,12.73
2017-02-02T09:39:54.794Z,13.28
2017-02-02T09:40:53.980Z,13.6
2017-02-02T09:41:54.866Z,13.62
2017-02-02T09:42:53.968Z,13.48
2017-02-02T09:43:54.351Z,13.23
2017-02-02T09:44:54.334Z,13.18
2017-02-02T09:45:54.338Z,12.83
2017-02-02T09:46:54.301Z,12.34
2017-02-02T09:47:54.305Z,13.11
2017-02-02T09:48:54.285Z,14.11
2017-02-02T09:49:54.674Z,13.75
2017-02-02T09:50:54.258Z,13.16
2017-02-02T09:51:54.248Z,12.71
2017-02-02T09:52:54.230Z,12.68
2017-02-02T09:53:54.633Z,12.73
2017-02-02T09:54:54.219Z,13.22
2017-02-02T09:55:54.616Z,12.37
2017-02-02T09:56:54.194Z,11.69
2017-02-02T09:57:54.579Z,11.98
2017-02-02T09:58:54.569Z,12.15
2017-02-02T09:59:54.592Z,12.73
2017-02-02T10:00:54.582Z,12.85
2017-02-02T10:01:53.717Z,12.21
2017-02-02T10:02:54.114Z,11.99
2017-02-02T10:03:54.497Z,12.5
2017-02-02T10:04:54.504Z,13.26
2017-02-02T10:05:54.082Z,13.44
2017-02-02T10:06:54.502Z,13.52
2017-02-02T10:07:54.454Z,14.13
2017-02-02T10:08:54.054Z,13.66
2017-02-02T10:09:54.024Z,13.08
2017-02-02T10:10:54.421Z,12.71
2017-02-02T10:11:53.998Z,12.2
2017-02-02T10:12:54.379Z,11.61
2017-02-02T10:13:53.976Z,11.97
2017-02-02T10:14:53.979Z,12.32
2017-02-02T10:15:53.940Z,12.13
2017-02-02T10:16:53.937Z,11.66
2017-02-02T10:17:54.316Z,11.68
2017-02-02T10:18:54.292Z,11.42
2017-02-02T10:19:53.887Z,11.35
2017-02-02T10:20:53.875Z,12.02
2017-02-02T10:21:54.251Z,12.85
2017-02-02T10:22:53.944Z,12.32
2017-02-02T10:23:53.838Z,12.3
2017-02-02T10:24:54.330Z,12.58
2017-02-02T10:25:54.203Z,12.86
2017-02-02T10:26:53.776Z,13
2017-02-02T10:27:54.205Z,12.96
2017-02-02T10:28:54.161Z,13.49
2017-02-02T10:29:54.160Z,14.17
2017-02-02T10:30:53.715Z,14.28
2017-02-02T10:31:53.712Z,14.08
2017-02-02T10:32:54.142Z,14.21
2017-02-02T10:33:53.687Z,13.95
2017-02-02T10:34:54.128Z,14.5
2017-02-02T10:35:53.669Z,14.87
2017-02-02T10:36:53.683Z,14.22
2017-02-02T10:37:54.032Z,14.11
2017-02-02T10:38:53.621Z,13.65
2017-02-02T10:39:53.600Z,14.14
2017-02-02T10:40:53.586Z,14.46
2017-02-02T10:41:53.581Z,15.1
2017-02-02T10:42:53.165Z,15.54
2017-02-02T10:43:53.956Z,15.24
2017-02-02T10:44:53.538Z,14.8
2017-02-02T10:45:53.933Z,14.7
2017-02-02T10:46:53.917Z,14.57
2017-02-02T10:47:53.911Z,14.82
2017-02-02T10:48:53.492Z,15.17
2017-02-02T10:49:53.474Z,14.92
2017-02-02T10:50:53.874Z,15.1
2017-02-02T10:51:53.459Z,15.34
2017-02-02T10:52:53.445Z,15.8
2017-02-02T10:53:53.836Z,15.68
2017-02-02T10:54:53.825Z,14.94
2017-02-02T10:55:53.803Z,14.21
2017-02-02T10:56:53.388Z,14.17
2017-02-02T10:57:53.386Z,14.13
2017-02-02T10:58:53.795Z,14.54
2017-02-02T10:59:53.768Z,14.6
2017-02-02T11:00:52.946Z,15.04
2017-02-02T11:01:53.746Z,15.6
2017-02-02T11:02:53.769Z,15.54
2017-02-02T11:03:53.713Z,15.79
2017-02-02T11:04:53.305Z,15.28
2017-02-02T11:05:53.292Z,14.6
2017-02-02T11:06:52.882Z,14.35
2017-02-02T11:07:53.671Z,13.99
2017-02-02T11:08:53.253Z,13.75
2017-02-02T11:09:53.641Z,13.74
2017-02-02T11:10:52.817Z,14.08
2017-02-02T11:11:53.607Z,14.26
2017-02-02T11:12:53.610Z,14.15
2017-02-02T11:13:53.599Z,14.46
2017-02-02T11:14:52.762Z,14.2
2017-02-02T11:15:53.238Z,14.26
2017-02-02T11:16:53.631Z,13.96
2017-02-02T11:17:52.828Z,13.74
2017-02-02T11:18:53.512Z,13.6
2017-02-02T11:19:53.099Z,13.31
2017-02-02T11:20:53.227Z,13.48
2017-02-02T11:21:53.069Z,13.33
2017-02-02T11:22:53.049Z,12.96
2017-02-02T11:23:53.569Z,13.28
2017-02-02T11:24:53.424Z,13.95
2017-02-02T11:25:52.701Z,14.21
2017-02-02T11:26:52.990Z,13.89
2017-02-02T11:27:53.022Z,13.95
2017-02-02T11:28:52.957Z,13.93
2017-02-02T11:29:53.363Z,13.37
2017-02-02T11:30:52.927Z,13.44
2017-02-02T11:31:53.324Z,13.56
2017-02-02T11:32:52.917Z,13.6
2017-02-02T11:33:53.286Z,13.85
2017-02-02T11:34:52.921Z,14.38
2017-02-02T11:35:52.855Z,14.91
2017-02-02T11:36:53.356Z,15.25
2017-02-02T11:37:52.826Z,15.27
2017-02-02T11:38:53.267Z,15.52
2017-02-02T11:39:52.797Z,15.52
2017-02-02T11:40:53.183Z,15.25
2017-02-02T11:41:53.162Z,15.34
2017-02-02T11:42:53.264Z,15.67
2017-02-02T11:43:52.333Z,15.97
2017-02-02T11:44:52.319Z,16.54
2017-02-02T11:45:53.114Z,16.31
2017-02-02T11:46:53.091Z,17.08
2017-02-02T11:47:53.085Z,17.06
2017-02-02T11:48:52.266Z,16.61
2017-02-02T11:49:52.646Z,16.69
2017-02-02T11:50:52.630Z,15.98
2017-02-02T11:51:52.219Z,15.9
2017-02-02T11:52:53.027Z,15.28
2017-02-02T11:53:52.597Z,15.58
2017-02-02T11:54:52.586Z,15.67
2017-02-02T11:55:52.571Z,15.61
2017-02-02T11:56:52.150Z,16.02
2017-02-02T11:57:52.552Z,15.8
2017-02-02T11:58:52.952Z,15.57
2017-02-02T11:59:52.922Z,15.77
2017-02-02T12:00:52.911Z,15.37
2017-02-02T12:01:52.537Z,15.22
2017-02-02T12:02:52.070Z,14.95
2017-02-02T12:03:52.467Z,15.17
2017-02-02T12:04:52.450Z,15.4
2017-02-02T12:05:52.845Z,15.25
2017-02-02T12:06:52.423Z,15.46
2017-02-02T12:07:52.463Z,15.25
2017-02-02T12:08:52.392Z,15.57
2017-02-02T12:09:52.776Z,16.07
2017-02-02T12:10:52.371Z,16.5
2017-02-02T12:11:52.767Z,16.82
2017-02-02T12:12:52.353Z,17.06
2017-02-02T12:13:52.324Z,16.66
2017-02-02T12:14:52.325Z,16.63
2017-02-02T12:15:52.304Z,16.63
2017-02-02T12:16:52.705Z,16.89
2017-02-02T12:17:51.883Z,16.96
2017-02-02T12:18:52.262Z,16.87
2017-02-02T12:19:51.882Z,16.81
2017-02-02T12:20:52.229Z,16.45
2017-02-02T12:21:52.636Z,16.58
2017-02-02T12:22:52.619Z,16.43
2017-02-02T12:23:52.607Z,16.23
2017-02-02T12:24:52.182Z,15.9
2017-02-02T12:25:52.572Z,16.24
2017-02-02T12:26:52.676Z,16.72
2017-02-02T12:27:52.548Z,16.31
2017-02-02T12:28:52.128Z,16.64
2017-02-02T12:29:52.119Z,16.02
2017-02-02T12:30:52.103Z,16.02
2017-02-02T12:31:52.506Z,16.23
2017-02-02T12:32:52.512Z,16.54
2017-02-02T12:33:52.065Z,16.68
2017-02-02T12:34:52.074Z,16.78
2017-02-02T12:35:52.029Z,16.87
2017-02-02T12:36:52.024Z,17.08
2017-02-02T12:37:52.024Z,16.24
2017-02-02T12:38:52.451Z,16.35
2017-02-02T12:39:51.577Z,16.76
2017-02-02T12:40:51.968Z,17.31
2017-02-02T12:41:52.369Z,18
2017-02-02T12:42:51.959Z,17.62
2017-02-02T12:43:51.959Z,18
2017-02-02T12:44:52.317Z,17.44
2017-02-02T12:45:51.908Z,17.05
2017-02-02T12:46:51.907Z,16.78
2017-02-02T12:47:51.887Z,16.32
2017-02-02T12:48:51.484Z,15.95
2017-02-02T12:49:52.267Z,16.26
2017-02-02T12:50:52.254Z,16.69
2017-02-02T12:51:51.827Z,16.76
2017-02-02T12:52:52.310Z,16.63
2017-02-02T12:53:52.204Z,16.43
2017-02-02T12:54:52.263Z,16.91
2017-02-02T12:55:52.181Z,17.11
2017-02-02T12:56:52.182Z,16.81
2017-02-02T12:57:51.764Z,17.05
2017-02-02T12:58:51.763Z,16.75
2017-02-02T12:59:52.134Z,16.94
2017-02-02T13:00:51.715Z,16.74
2017-02-02T13:01:51.710Z,17.09
2017-02-02T13:02:52.089Z,17.42
2017-02-02T13:03:51.667Z,16.96
2017-02-02T13:04:52.115Z,16.69
2017-02-02T13:05:52.059Z,16.39
2017-02-02T13:06:52.130Z,16.04
2017-02-02T13:07:51.698Z,15.94
2017-02-02T13:08:51.605Z,16.01
2017-02-02T13:09:51.593Z,15.98
2017-02-02T13:10:51.622Z,16.17
2017-02-02T13:11:51.963Z,15.75
2017-02-02T13:12:51.603Z,15.53